Météo des aéroports (METAR) proches de Ticheville

 

LFRG - St Gatien, France
Distance from station: N 52km
Mise à jour: 16/12/2018 22:30
Thunderstorm
Thunderstorm
 Wind from SO
Vent: SO 15 km/h
Température: 7°C
Wind Chill: 4°C
Point de rosée: 6°C
Humidité: 93%
Baromètre: 1010 hPa
Clouds: Thunderstorm
Visibility: 10 km
Cloud details: nuageux 213 m
couvert 549 m
2018/12/16 21:30 LFRG 162130Z AUTO 23008KT 180V260 9999 BKN007/// OVC018/// ///TCU 07/06 Q1010
LFRK - Caen/Carpiquet(A, France
Distance from station: ONO 60km
Mise à jour: 16/12/2018 22:30
clair
clair
 Wind from SO
Vent: SO 20 km/h
Température: 8°C
Wind Chill: 4°C
Point de rosée: 6°C
Humidité: 87%
Baromètre: 1011 hPa
Résumé: clair
Visibility: greater than 10 km
2018/12/16 21:30 LFRK 162130Z AUTO 23011KT CAVOK 08/06 Q1011
 
LFOH - Le Havre/Octevil, France
Distance from station: NNO 69km
Mise à jour: 16/12/2018 22:30
Thunderstorm
Thunderstorm
 Wind from SSO
Vent: SSO 22 km/h
Température: 8°C
Wind Chill: 4°C
Point de rosée: 6°C
Humidité: 87%
Baromètre: 1009 hPa
Clouds: Thunderstorm
Visibility: 10 km
Cloud details: nuageux 823 m
couvert 1128 m
2018/12/16 21:30 LFOH 162130Z AUTO 21012KT 9999 BKN027/// OVC037/// ///TCU 08/06 Q1009
LFOE - Evreux/Fauville, France
Distance from station: E 70km
Mise à jour: 16/12/2018 22:30
Thunderstorm
Thunderstorm
 Wind from S
Vent: S 17 km/h
Température: 6°C
Wind Chill: 3°C
Point de rosée: 6°C
Humidité: 100%
Baromètre: 1011 hPa
Clouds: Thunderstorm
Visibility: 10 km
Cloud details: Few Clouds 427 m
partiellement nuageux 1067 m
nuageux 1280 m
2018/12/16 21:30 LFOE 162130Z AUTO 19009KT 9999 FEW014/// SCT035/// BKN042/// ///TCU 06/06 Q1011 TEMPO 3000 SHRA BECMG SCT020
 
LFOP - Rouen/Boos (aut), France
Distance from station: NE 83km
Mise à jour: 16/12/2018 22:30
pluie légère, Thunderstorm
pluie légère, Thunderstorm
 Wind from S
Vent: S 15 km/h
Température: 6°C
Wind Chill: 3°C
Point de rosée: 6°C
Humidité: 100%
Baromètre: 1010 hPa
Résumé: pluie légère
Clouds: Thunderstorm
Visibility: 6 km
Cloud details: Few Clouds 274 m
nuageux 701 m
nuageux 884 m
2018/12/16 21:30 LFOP 162130Z AUTO 18008KT 6000 -RA FEW009/// BKN023/// BKN029/// ///TCU 06/06 Q1010
LFRM - Le Mans/Arnage(A, France
Distance from station: S 107km
Mise à jour: 16/12/2018 22:30
nuageux
nuageux
 Wind from SO
Vent: SO 6 km/h
Température: 7°C
Point de rosée: 6°C
Humidité: 93%
Baromètre: 1013 hPa
Clouds: nuageux
Visibility: 10 km
Cloud details: nuageux 274 m
nuageux 1006 m
nuageux 4267 m
2018/12/16 21:30 LFRM 162130Z AUTO 22003KT 180V240 9999 BKN009 BKN033 BKN140 07/06 Q1013 BECMG SCT015